Time;durP1;ratioP1;P1;durP2;ratioP2;P2;SDS_P1;SDS_P2;PMS_P1;PMS_P2;Temp;Humidity;BMP_temperature;BMP_pressure;BME280_temperature;BME280_humidity;BME280_pressure;Samples;Min_cycle;Max_cycle;Signal;HPM_P1;HPM_P2
2021/01/31 00:01:09;;;;;;;14.80;4.13;;;;;;;;;;5114763;27;20068;-36
2021/01/31 00:03:34;;;;;;;8.85;2.25;;;;;;;;;;5114623;28;20378;-37
2021/01/31 00:06:02;;;;;;;13.77;3.30;;;;;;;;;;5114280;28;20081;-36
2021/01/31 00:08:27;;;;;;;6.93;2.33;;;;;;;;;;5114993;28;20064;-37
2021/01/31 00:10:53;;;;;;;5.10;1.92;;;;;;;;;;5114657;28;20098;-37
2021/01/31 00:13:19;;;;;;;10.18;2.13;;;;;;;;;;5114863;28;20023;-37
2021/01/31 00:15:46;;;;;;;11.30;4.60;;;;;;;;;;5114199;28;20023;-36
2021/01/31 00:18:12;;;;;;;11.50;3.63;;;;;;;;;;5114755;28;20084;-37
2021/01/31 00:20:38;;;;;;;7.28;4.47;;;;;;;;;;5114455;28;20023;-36
2021/01/31 00:23:04;;;;;;;20.73;5.85;;;;;;;;;;5114596;28;20015;-38
2021/01/31 00:25:29;;;;;;;11.13;6.22;;;;;;;;;;5113970;28;20467;-36
2021/01/31 00:27:55;;;;;;;14.45;5.55;;;;;;;;;;5114810;28;20020;-37
2021/01/31 00:30:29;;;;;;;15.95;4.68;;;;;;;;;;5114248;28;20019;-37
2021/01/31 00:32:54;;;;;;;14.00;3.08;;;;;;;;;;5114348;28;20027;-37
2021/01/31 00:35:22;;;;;;;5.68;2.15;;;;;;;;;;5114168;28;20028;-37
2021/01/31 00:37:48;;;;;;;7.20;4.35;;;;;;;;;;5114384;27;20024;-37
2021/01/31 00:40:13;;;;;;;16.98;6.03;;;;;;;;;;5114297;28;20011;-37
2021/01/31 00:42:39;;;;;;;6.35;3.65;;;;;;;;;;5114026;28;20046;-36
2021/01/31 00:45:06;;;;;;;18.23;5.03;;;;;;;;;;5114052;28;20027;-38
2021/01/31 00:47:31;;;;;;;10.95;3.45;;;;;;;;;;5113780;28;20031;-37
2021/01/31 00:49:56;;;;;;;16.00;4.22;;;;;;;;;;5113864;28;20048;-36
2021/01/31 00:52:22;;;;;;;7.43;3.72;;;;;;;;;;5113944;28;20102;-37
2021/01/31 00:54:48;;;;;;;6.80;3.15;;;;;;;;;;5113819;28;20020;-36
2021/01/31 00:57:13;;;;;;;5.38;2.63;;;;;;;;;;5113636;28;20451;-36
2021/01/31 00:59:38;;;;;;;5.57;1.88;;;;;;;;;;5113726;28;20020;-36
2021/01/31 01:02:12;;;;;;;11.80;2.45;;;;;;;;;;5113730;28;20015;-37
2021/01/31 01:04:38;;;;;;;7.45;2.33;;;;;;;;;;5113564;28;20516;-37
2021/01/31 01:07:03;;;;;;;19.20;2.45;;;;;;;;;;5113584;28;20033;-37
2021/01/31 01:09:28;;;;;;;6.10;3.15;;;;;;;;;;5113656;28;20034;-36
2021/01/31 01:11:54;;;;;;;9.23;3.97;;;;;;;;;;5113927;28;20368;-36
2021/01/31 01:14:19;;;;;;;7.97;4.07;;;;;;;;;;5113519;28;20040;-36
2021/01/31 01:16:44;;;;;;;10.43;5.57;;;;;;;;;;5113422;28;20036;-36
2021/01/31 01:19:10;;;;;;;7.03;3.88;;;;;;;;;;5113248;28;20098;-37
2021/01/31 01:21:35;;;;;;;19.38;3.40;;;;;;;;;;5113624;28;20090;-36
2021/01/31 01:24:01;;;;;;;8.85;3.00;;;;;;;;;;5113415;28;20055;-36
2021/01/31 01:26:29;;;;;;;16.52;4.88;;;;;;;;;;5113177;28;20448;-37
2021/01/31 01:28:55;;;;;;;12.45;3.10;;;;;;;;;;5113108;28;20487;-36
2021/01/31 01:31:20;;;;;;;13.27;4.18;;;;;;;;;;5113375;28;20051;-36
2021/01/31 01:33:45;;;;;;;11.50;3.50;;;;;;;;;;5113740;28;20075;-37
2021/01/31 01:36:10;;;;;;;12.68;4.15;;;;;;;;;;5113067;28;20027;-36
2021/01/31 01:38:36;;;;;;;3.60;2.33;;;;;;;;;;5113741;28;20058;-37
2021/01/31 01:41:01;;;;;;;4.82;2.80;;;;;;;;;;5113353;28;20371;-37
2021/01/31 01:43:31;;;;;;;8.25;3.13;;;;;;;;;;5113436;28;20040;-36
2021/01/31 01:46:08;;;;;;;7.07;1.98;;;;;;;;;;5113446;28;20035;-36
2021/01/31 01:48:34;;;;;;;6.97;2.00;;;;;;;;;;5113603;28;20111;-38
2021/01/31 01:50:59;;;;;;;4.75;2.65;;;;;;;;;;5113654;28;20388;-37
2021/01/31 01:53:25;;;;;;;6.68;2.55;;;;;;;;;;5113876;28;20020;-36
2021/01/31 01:56:00;;;;;;;12.27;2.63;;;;;;;;;;5112921;28;20027;-37
2021/01/31 01:58:26;;;;;;;14.30;3.70;;;;;;;;;;5113477;28;20027;-36
2021/01/31 02:00:52;;;;;;;12.32;4.40;;;;;;;;;;5112894;28;20427;-37
2021/01/31 02:03:23;;;;;;;15.25;6.55;;;;;;;;;;5113444;28;20043;-36
2021/01/31 02:05:55;;;;;;;6.95;4.53;;;;;;;;;;5113089;28;20103;-36
2021/01/31 02:08:21;;;;;;;10.45;4.32;;;;;;;;;;5116630;28;20024;-37
2021/01/31 02:10:46;;;;;;;8.75;2.83;;;;;;;;;;5116643;28;20444;-36
2021/01/31 02:13:12;;;;;;;11.77;3.03;;;;;;;;;;5117285;28;20132;-37
2021/01/31 02:15:37;;;;;;;6.75;2.78;;;;;;;;;;5116878;28;20012;-36
2021/01/31 02:18:08;;;;;;;12.40;5.03;;;;;;;;;;5117061;28;20028;-37
2021/01/31 02:20:39;;;;;;;6.05;3.38;;;;;;;;;;5117172;28;20064;-36
2021/01/31 02:23:23;;;;;;;7.28;2.75;;;;;;;;;;5116999;28;20039;-37
2021/01/31 02:25:59;;;;;;;2.65;1.75;;;;;;;;;;5116615;28;20059;-38
2021/01/31 02:28:30;;;;;;;13.75;3.20;;;;;;;;;;5117244;28;20023;-36
2021/01/31 02:30:56;;;;;;;5.43;2.50;;;;;;;;;;5116663;28;20047;-36
2021/01/31 02:33:40;;;;;;;4.38;1.58;;;;;;;;;;5116913;28;20340;-37
2021/01/31 02:36:08;;;;;;;5.93;2.28;;;;;;;;;;5116242;28;20027;-37
2021/01/31 02:38:46;;;;;;;8.32;1.65;;;;;;;;;;5116338;28;20495;-37
2021/01/31 02:41:16;;;;;;;11.85;2.90;;;;;;;;;;5116362;28;20034;-37
2021/01/31 02:43:43;;;;;;;2.10;1.33;;;;;;;;;;5116365;28;20066;-37
2021/01/31 02:46:17;;;;;;;4.40;1.63;;;;;;;;;;5116281;28;20058;-37
2021/01/31 02:48:49;;;;;;;3.28;1.15;;;;;;;;;;5115088;28;20454;-37
2021/01/31 02:51:21;;;;;;;12.13;2.08;;;;;;;;;;5116196;28;20062;-36
2021/01/31 02:54:08;;;;;;;4.72;1.63;;;;;;;;;;5116936;28;20019;-37
2021/01/31 02:56:39;;;;;;;7.53;1.77;;;;;;;;;;5115751;28;20063;-38
2021/01/31 02:59:07;;;;;;;3.88;1.50;;;;;;;;;;5115794;28;20040;-38
2021/01/31 03:01:38;;;;;;;4.03;2.60;;;;;;;;;;5115947;28;20046;-37
2021/01/31 03:04:20;;;;;;;6.95;2.97;;;;;;;;;;5115694;28;20024;-36
2021/01/31 03:06:49;;;;;;;5.43;2.63;;;;;;;;;;5115618;28;20071;-36
2021/01/31 03:09:23;;;;;;;12.68;3.03;;;;;;;;;;5115842;28;20026;-36
2021/01/31 03:11:52;;;;;;;9.30;2.03;;;;;;;;;;5115822;28;20050;-36
2021/01/31 03:14:21;;;;;;;14.75;3.63;;;;;;;;;;5115478;28;20364;-37
2021/01/31 03:17:01;;;;;;;16.02;4.15;;;;;;;;;;5115701;28;20023;-37
2021/01/31 03:19:34;;;;;;;3.80;2.92;;;;;;;;;;5114487;28;20020;-36
2021/01/31 03:22:02;;;;;;;16.67;6.50;;;;;;;;;;5114721;28;20019;-37
2021/01/31 03:24:33;;;;;;;13.98;3.63;;;;;;;;;;5115296;28;20043;-37
2021/01/31 03:27:06;;;;;;;10.23;1.95;;;;;;;;;;5115411;28;20063;-37
2021/01/31 03:29:32;;;;;;;5.10;1.65;;;;;;;;;;5114157;28;20038;-37
2021/01/31 03:31:59;;;;;;;2.60;1.65;;;;;;;;;;5116149;28;20015;-36
2021/01/31 03:34:28;;;;;;;12.30;2.00;;;;;;;;;;5115406;28;20028;-37
2021/01/31 03:36:56;;;;;;;11.13;1.35;;;;;;;;;;5115281;28;20096;-37
2021/01/31 03:39:22;;;;;;;8.02;1.85;;;;;;;;;;5115337;28;20030;-37
2021/01/31 03:41:47;;;;;;;18.52;2.88;;;;;;;;;;5115165;28;20019;-37
2021/01/31 03:44:13;;;;;;;3.97;1.90;;;;;;;;;;5114970;28;20055;-37
2021/01/31 03:46:49;;;;;;;6.28;1.58;;;;;;;;;;5114959;28;20030;-37
2021/01/31 03:49:29;;;;;;;19.90;4.18;;;;;;;;;;5115064;27;20447;-37
2021/01/31 03:51:54;;;;;;;18.88;2.80;;;;;;;;;;5115089;28;20023;-37
2021/01/31 03:54:20;;;;;;;24.90;3.28;;;;;;;;;;5114715;28;20031;-37
2021/01/31 03:56:56;;;;;;;5.63;1.77;;;;;;;;;;5114892;28;20042;-36
2021/01/31 03:59:24;;;;;;;6.40;2.25;;;;;;;;;;5115206;28;20020;-36
2021/01/31 04:01:51;;;;;;;8.55;3.45;;;;;;;;;;5114979;28;20027;-37
2021/01/31 04:04:27;;;;;;;10.63;2.13;;;;;;;;;;5114848;28;20015;-36
2021/01/31 04:06:55;;;;;;;7.25;1.90;;;;;;;;;;5114519;28;20329;-36
2021/01/31 04:09:21;;;;;;;5.03;1.83;;;;;;;;;;5114755;28;20019;-37
2021/01/31 04:11:47;;;;;;;6.55;2.30;;;;;;;;;;5114601;28;20102;-37
2021/01/31 04:14:20;;;;;;;7.82;2.70;;;;;;;;;;5114363;28;20458;-36
2021/01/31 04:16:47;;;;;;;4.40;1.85;;;;;;;;;;5114853;28;20047;-37
2021/01/31 04:19:13;;;;;;;7.78;3.30;;;;;;;;;;5114201;28;20042;-37
2021/01/31 04:21:38;;;;;;;11.32;2.75;;;;;;;;;;5114330;28;20356;-37
2021/01/31 04:24:04;;;;;;;8.40;2.42;;;;;;;;;;5114748;28;20031;-37
2021/01/31 04:26:29;;;;;;;4.95;2.17;;;;;;;;;;5114218;28;20416;-36
2021/01/31 04:28:54;;;;;;;6.50;2.67;;;;;;;;;;5114343;28;20019;-36
2021/01/31 04:31:20;;;;;;;9.82;2.17;;;;;;;;;;5114203;28;20016;-37
2021/01/31 04:33:45;;;;;;;5.30;1.52;;;;;;;;;;5114610;28;20031;-36
2021/01/31 04:36:10;;;;;;;10.77;3.05;;;;;;;;;;5114507;28;20024;-36
2021/01/31 04:38:39;;;;;;;2.38;1.65;;;;;;;;;;5114522;27;20021;-36
2021/01/31 04:41:04;;;;;;;4.60;1.25;;;;;;;;;;5113738;28;20027;-37
2021/01/31 04:43:30;;;;;;;13.55;1.58;;;;;;;;;;5114300;28;20039;-36
2021/01/31 04:45:55;;;;;;;6.35;1.00;;;;;;;;;;5113584;28;20027;-36
2021/01/31 04:48:24;;;;;;;3.70;1.13;;;;;;;;;;5114333;28;20106;-37
2021/01/31 04:50:52;;;;;;;8.45;1.17;;;;;;;;;;5113630;28;20030;-36
2021/01/31 04:53:36;;;;;;;5.97;1.50;;;;;;;;;;5114175;28;20015;-38
2021/01/31 04:56:02;;;;;;;4.68;1.33;;;;;;;;;;5113815;28;20370;-37
2021/01/31 04:58:32;;;;;;;8.73;1.88;;;;;;;;;;5114105;28;20012;-36
2021/01/31 05:01:10;;;;;;;5.18;1.27;;;;;;;;;;5114040;28;20100;-37
2021/01/31 05:03:46;;;;;;;10.50;1.58;;;;;;;;;;5114291;28;20020;-37
2021/01/31 05:06:13;;;;;;;5.38;1.25;;;;;;;;;;5113722;28;20027;-37
2021/01/31 05:08:39;;;;;;;3.15;1.20;;;;;;;;;;5113966;28;20454;-36
2021/01/31 05:11:17;;;;;;;4.35;0.55;;;;;;;;;;5113432;28;20019;-36
2021/01/31 05:13:47;;;;;;;5.47;1.15;;;;;;;;;;5113783;28;20110;-36
2021/01/31 05:16:14;;;;;;;4.95;1.55;;;;;;;;;;5113615;28;20030;-37
2021/01/31 05:18:50;;;;;;;14.10;3.10;;;;;;;;;;5113935;28;20019;-36
2021/01/31 05:21:18;;;;;;;4.07;1.40;;;;;;;;;;5113279;28;20019;-36
2021/01/31 05:23:46;;;;;;;6.88;0.77;;;;;;;;;;5114211;28;20027;-36
2021/01/31 05:26:12;;;;;;;10.25;1.55;;;;;;;;;;5113076;28;20464;-37
2021/01/31 05:28:39;;;;;;;4.68;0.47;;;;;;;;;;5114104;28;20152;-37
2021/01/31 05:31:05;;;;;;;4.65;0.90;;;;;;;;;;5113134;28;20019;-37
2021/01/31 05:33:46;;;;;;;3.47;1.15;;;;;;;;;;5114039;28;20031;-36
2021/01/31 05:36:11;;;;;;;2.95;0.85;;;;;;;;;;5113714;28;20050;-36
2021/01/31 05:38:44;;;;;;;4.20;0.90;;;;;;;;;;5113503;28;20418;-36
2021/01/31 05:41:25;;;;;;;6.88;1.38;;;;;;;;;;5113672;28;20065;-36
2021/01/31 05:43:59;;;;;;;4.32;1.23;;;;;;;;;;5117951;28;20132;-36
2021/01/31 05:46:34;;;;;;;17.63;4.05;;;;;;;;;;5117151;28;20107;-36
2021/01/31 05:48:59;;;;;;;5.38;1.63;;;;;;;;;;5117309;28;20024;-37
2021/01/31 05:51:31;;;;;;;3.72;1.35;;;;;;;;;;5117312;28;20435;-36
2021/01/31 05:53:56;;;;;;;5.05;1.65;;;;;;;;;;5117453;28;20020;-36
2021/01/31 05:56:28;;;;;;;0.68;0.43;;;;;;;;;;5117824;28;20118;-36
2021/01/31 05:59:06;;;;;;;2.28;0.98;;;;;;;;;;5117248;28;20031;-36
2021/01/31 06:01:31;;;;;;;7.28;1.77;;;;;;;;;;5116819;28;20023;-37
2021/01/31 06:04:10;;;;;;;7.65;1.85;;;;;;;;;;5117087;28;20028;-37
2021/01/31 06:06:35;;;;;;;3.85;1.80;;;;;;;;;;5116631;28;20034;-37
2021/01/31 06:09:11;;;;;;;6.53;2.17;;;;;;;;;;5117300;28;20016;-36
2021/01/31 06:11:36;;;;;;;5.22;2.38;;;;;;;;;;5117045;28;20360;-36
2021/01/31 06:14:02;;;;;;;12.60;2.83;;;;;;;;;;5117240;28;20099;-37
2021/01/31 06:16:27;;;;;;;12.90;2.95;;;;;;;;;;5117103;28;20011;-37
2021/01/31 06:19:13;;;;;;;14.57;2.22;;;;;;;;;;5116880;28;20027;-36
2021/01/31 06:21:41;;;;;;;3.72;1.50;;;;;;;;;;5116652;28;20035;-36
2021/01/31 06:24:20;;;;;;;17.52;2.03;;;;;;;;;;5116826;28;20019;-36
2021/01/31 06:26:45;;;;;;;4.15;1.77;;;;;;;;;;5116707;28;20540;-36
2021/01/31 06:29:16;;;;;;;3.33;2.13;;;;;;;;;;5116436;28;20062;-36
2021/01/31 06:31:47;;;;;;;10.88;1.75;;;;;;;;;;5116554;28;20016;-36
2021/01/31 06:34:13;;;;;;;5.60;2.17;;;;;;;;;;5116601;28;20024;-36
2021/01/31 06:36:54;;;;;;;11.32;1.40;;;;;;;;;;5116447;28;20347;-36
2021/01/31 06:39:19;;;;;;;;;;;;;;;;;;5116700;28;20434;-36
2021/01/31 06:41:51;;;;;;;7.57;1.37;;;;;;;;;;5116132;28;20034;-36
2021/01/31 06:44:16;;;;;;;;;;;;;;;;;;5116534;27;20311;-38
2021/01/31 06:47:00;;;;;;;5.97;1.00;;;;;;;;;;5116194;28;19951;-36
2021/01/31 06:49:28;;;;;;;12.20;1.60;;;;;;;;;;5116325;28;20027;-36
2021/01/31 06:52:26;;;;;;;7.45;0.95;;;;;;;;;;5116065;28;20020;-37
2021/01/31 06:55:09;;;;;;;4.90;1.38;;;;;;;;;;5092801;28;20024;-39
2021/01/31 06:57:34;;;;;;;10.75;0.82;;;;;;;;;;5116269;28;20431;-37
2021/01/31 07:00:22;;;;;;;9.55;2.95;;;;;;;;;;5116172;28;20020;-37
2021/01/31 07:02:51;;;;;;;9.30;1.30;;;;;;;;;;5095940;28;20031;-37
2021/01/31 07:05:19;;;;;;;3.75;1.42;;;;;;;;;;5114629;28;20027;-36
2021/01/31 07:07:44;;;;;;;3.45;1.48;;;;;;;;;;5115895;28;20035;-37
2021/01/31 07:10:15;;;;;;;3.83;0.88;;;;;;;;;;5116066;28;20015;-37
2021/01/31 07:12:55;;;;;;;13.18;1.15;;;;;;;;;;5115917;28;20045;-37
2021/01/31 07:15:21;;;;;;;8.10;2.05;;;;;;;;;;5115767;28;20099;-37
2021/01/31 07:17:52;;;;;;;6.25;2.13;;;;;;;;;;5115954;28;20051;-36
2021/01/31 07:20:21;;;;;;;5.45;1.48;;;;;;;;;;5115495;28;20020;-38
2021/01/31 07:22:49;;;;;;;4.18;1.65;;;;;;;;;;5115806;28;20393;-38
2021/01/31 07:25:34;;;;;;;9.27;1.38;;;;;;;;;;5115268;28;20024;-37
2021/01/31 07:28:03;;;;;;;4.97;2.15;;;;;;;;;;5115786;27;20023;-37
2021/01/31 07:30:29;;;;;;;2.08;1.10;;;;;;;;;;5115187;28;20447;-36
2021/01/31 07:33:08;;;;;;;5.05;1.15;;;;;;;;;;5115634;28;20026;-36
2021/01/31 07:35:40;;;;;;;9.30;1.50;;;;;;;;;;5115747;28;20144;-38
2021/01/31 07:38:26;;;;;;;2.65;0.75;;;;;;;;;;5115598;28;20435;-37
2021/01/31 07:40:55;;;;;;;10.27;1.63;;;;;;;;;;5115129;28;20027;-37
2021/01/31 07:43:21;;;;;;;1.60;0.85;;;;;;;;;;5115370;28;20044;-36
2021/01/31 07:48:52;;;;;;;4.95;1.48;;;;;;;;;;5115827;28;20027;-38
2021/01/31 07:51:26;;;;;;;9.43;2.28;;;;;;;;;;5115325;28;20030;-37
2021/01/31 07:53:52;;;;;;;13.10;2.63;;;;;;;;;;5114954;28;20027;-36
2021/01/31 07:56:27;;;;;;;9.63;3.55;;;;;;;;;;5114986;28;20020;-37
2021/01/31 07:59:15;;;;;;;5.70;2.20;;;;;;;;;;5114955;28;20077;-37
2021/01/31 08:01:40;;;;;;;5.38;1.67;;;;;;;;;;5108590;28;20027;-37
2021/01/31 08:04:17;;;;;;;6.40;1.63;;;;;;;;;;5114523;28;20020;-36
2021/01/31 08:06:52;;;;;;;3.88;1.42;;;;;;;;;;5114429;28;20023;-36
2021/01/31 08:09:29;;;;;;;8.85;0.82;;;;;;;;;;5114697;28;20022;-37
2021/01/31 08:11:54;;;;;;;7.68;2.58;;;;;;;;;;5114673;28;20023;-36
2021/01/31 08:14:38;;;;;;;9.55;2.05;;;;;;;;;;5115150;28;20500;-37
2021/01/31 08:20:25;;;;;;;6.95;1.13;;;;;;;;;;5114496;28;20022;-37
2021/01/31 08:22:51;;;;;;;7.32;1.55;;;;;;;;;;5114505;28;20347;-37
2021/01/31 08:25:16;;;;;;;8.52;0.95;;;;;;;;;;5114597;28;20103;-43
2021/01/31 08:27:41;;;;;;;3.97;1.52;;;;;;;;;;5114224;28;20039;-43
2021/01/31 08:30:26;;;;;;;3.83;2.22;;;;;;;;;;5114326;28;20051;-43
2021/01/31 08:32:57;;;;;;;2.75;1.85;;;;;;;;;;5114454;28;20020;-41
2021/01/31 08:35:24;;;;;;;4.85;1.42;;;;;;;;;;5114282;28;20065;-47
2021/01/31 08:37:52;;;;;;;3.80;1.30;;;;;;;;;;5114414;28;20016;-43
2021/01/31 08:40:20;;;;;;;17.60;2.22;;;;;;;;;;5113799;28;20019;-41
2021/01/31 08:42:46;;;;;;;5.50;2.10;;;;;;;;;;5111850;28;20104;-44
2021/01/31 08:45:12;;;;;;;8.50;2.97;;;;;;;;;;5113927;28;20027;-42
2021/01/31 08:47:41;;;;;;;5.70;2.33;;;;;;;;;;5114068;28;20032;-40
2021/01/31 08:50:08;;;;;;;5.93;1.48;;;;;;;;;;5114173;28;20398;-43
2021/01/31 08:52:33;;;;;;;7.88;2.25;;;;;;;;;;5113999;28;20023;-41
2021/01/31 08:54:59;;;;;;;12.40;1.38;;;;;;;;;;5114414;28;20348;-43
2021/01/31 08:57:26;;;;;;;13.15;2.67;;;;;;;;;;5114614;28;20043;-42
2021/01/31 08:59:51;;;;;;;7.15;2.53;;;;;;;;;;5113795;28;20019;-42
2021/01/31 09:02:27;;;;;;;14.82;3.20;;;;;;;;;;5113770;28;20022;-45
2021/01/31 09:04:54;;;;;;;6.15;3.63;;;;;;;;;;5112360;28;20015;-43
2021/01/31 09:07:44;;;;;;;6.95;2.80;;;;;;;;;;5113537;28;20031;-41
2021/01/31 09:10:10;;;;;;;5.85;2.42;;;;;;;;;;5107995;28;20535;-41
2021/01/31 09:15:38;;;;;;;6.82;4.03;;;;;;;;;;5113425;28;20107;-40
2021/01/31 09:21:19;;;;;;;9.35;3.58;;;;;;;;;;5113509;28;20486;-41
2021/01/31 09:23:45;;;;;;;12.45;2.45;;;;;;;;;;5113755;28;20085;-41
2021/01/31 09:26:11;;;;;;;8.45;3.05;;;;;;;;;;5113383;28;20031;-44
2021/01/31 09:28:39;;;;;;;9.35;4.50;;;;;;;;;;5113763;28;20095;-44
2021/01/31 09:31:04;;;;;;;1.30;0.75;;;;;;;;;;5113407;28;20020;-44
2021/01/31 09:33:38;;;;;;;7.13;1.65;;;;;;;;;;5113955;28;20162;-41
2021/01/31 09:36:21;;;;;;;2.33;0.70;;;;;;;;;;5113188;28;20080;-44
2021/01/31 09:38:47;;;;;;;5.93;0.95;;;;;;;;;;5113429;28;20066;-46
2021/01/31 09:41:17;;;;;;;6.15;1.63;;;;;;;;;;5113305;28;20436;-41
2021/01/31 09:43:43;;;;;;;5.85;1.70;;;;;;;;;;5113027;28;20044;-46
2021/01/31 09:46:11;;;;;;;2.90;1.25;;;;;;;;;;5113119;28;20158;-46
2021/01/31 09:51:39;;;;;;;5.65;1.40;;;;;;;;;;5112825;28;20531;-46
2021/01/31 09:54:16;;;;;;;2.05;1.23;;;;;;;;;;5112814;28;20090;-45
2021/01/31 09:56:47;;;;;;;12.13;1.58;;;;;;;;;;5112826;28;20020;-45
2021/01/31 09:59:21;;;;;;;7.28;1.88;;;;;;;;;;5113163;28;20078;-45
2021/01/31 10:01:47;;;;;;;8.73;2.35;;;;;;;;;;5112987;28;20071;-47
2021/01/31 10:04:24;;;;;;;2.30;1.27;;;;;;;;;;5112437;28;20098;-48
2021/01/31 10:06:52;;;;;;;1.90;0.73;;;;;;;;;;5112845;28;20035;-44
2021/01/31 10:12:30;;;;;;;11.60;2.47;;;;;;;;;;5113196;28;20111;-45
2021/01/31 10:14:57;;;;;;;2.97;1.30;;;;;;;;;;5112795;28;20066;-48
2021/01/31 10:17:28;;;;;;;10.02;2.97;;;;;;;;;;5113023;28;20019;-45
2021/01/31 10:20:12;;;;;;;8.82;2.67;;;;;;;;;;5112813;28;20031;-44
2021/01/31 10:22:40;;;;;;;4.88;1.70;;;;;;;;;;5113238;28;20024;-48
2021/01/31 10:25:09;;;;;;;5.68;2.88;;;;;;;;;;5113288;28;20046;-45
2021/01/31 10:27:42;;;;;;;5.72;1.92;;;;;;;;;;5113408;28;20059;-47
2021/01/31 10:30:18;;;;;;;7.88;0.82;;;;;;;;;;5116351;28;20020;-48
2021/01/31 10:32:44;;;;;;;3.25;2.15;;;;;;;;;;5116718;28;20098;-43
2021/01/31 10:35:30;;;;;;;4.75;2.38;;;;;;;;;;5116454;28;20098;-47
2021/01/31 10:37:57;;;;;;;1.98;1.20;;;;;;;;;;5116523;28;20023;-42
2021/01/31 10:40:23;;;;;;;4.72;0.77;;;;;;;;;;5116711;28;20030;-44
2021/01/31 10:42:48;;;;;;;8.38;0.82;;;;;;;;;;5116272;28;20036;-44
2021/01/31 10:45:15;;;;;;;2.28;0.88;;;;;;;;;;5116810;28;20123;-44
2021/01/31 10:47:42;;;;;;;12.60;2.22;;;;;;;;;;5116271;28;20173;-44
2021/01/31 10:50:07;;;;;;;4.80;1.52;;;;;;;;;;5116159;28;20022;-42
2021/01/31 10:52:33;;;;;;;3.83;1.67;;;;;;;;;;5116544;28;20402;-45
2021/01/31 10:54:58;;;;;;;8.10;1.35;;;;;;;;;;5116037;28;20016;-41
2021/01/31 10:57:24;;;;;;;3.40;1.17;;;;;;;;;;5116120;28;20020;-41
2021/01/31 10:59:49;;;;;;;6.35;1.25;;;;;;;;;;5115786;28;20030;-47
2021/01/31 11:02:14;;;;;;;10.63;1.42;;;;;;;;;;5116256;28;20409;-42
2021/01/31 11:04:40;;;;;;;13.48;6.63;;;;;;;;;;5116072;28;20034;-44
2021/01/31 11:07:05;;;;;;;10.65;5.28;;;;;;;;;;5116281;28;20491;-45
2021/01/31 11:09:30;;;;;;;12.52;4.03;;;;;;;;;;5116577;28;20102;-46
2021/01/31 11:11:56;;;;;;;2.67;1.92;;;;;;;;;;5115503;28;20024;-43
2021/01/31 11:14:21;;;;;;;10.77;2.67;;;;;;;;;;5115455;28;20106;-47
2021/01/31 11:19:49;;;;;;;5.18;1.27;;;;;;;;;;5115702;28;20486;-45
2021/01/31 11:22:14;;;;;;;2.60;1.42;;;;;;;;;;5115650;28;20020;-47
2021/01/31 11:24:40;;;;;;;13.93;2.90;;;;;;;;;;5115075;28;20008;-44
2021/01/31 11:27:06;;;;;;;11.13;1.70;;;;;;;;;;5115190;28;20372;-45
2021/01/31 11:29:32;;;;;;;4.72;1.42;;;;;;;;;;5115155;28;20024;-46
2021/01/31 11:31:57;;;;;;;5.38;1.50;;;;;;;;;;5115423;28;20398;-47
2021/01/31 11:34:24;;;;;;;10.68;1.65;;;;;;;;;;5115397;28;20029;-43
2021/01/31 11:36:49;;;;;;;4.75;2.75;;;;;;;;;;5115238;28;20047;-47
2021/01/31 11:39:14;;;;;;;4.78;2.42;;;;;;;;;;5114046;28;20047;-45
2021/01/31 11:41:40;;;;;;;5.78;2.33;;;;;;;;;;5115279;28;20019;-47
2021/01/31 11:44:06;;;;;;;5.82;3.35;;;;;;;;;;5115428;28;20482;-48
2021/01/31 11:46:32;;;;;;;6.75;3.50;;;;;;;;;;5115221;28;20169;-44
2021/01/31 11:48:58;;;;;;;4.55;1.25;;;;;;;;;;5115140;28;20078;-42
2021/01/31 11:51:23;;;;;;;3.88;2.70;;;;;;;;;;5115305;28;20072;-44
2021/01/31 11:53:48;;;;;;;6.70;2.92;;;;;;;;;;5115697;28;20348;-44
2021/01/31 11:56:13;;;;;;;4.60;2.33;;;;;;;;;;5114992;28;20031;-43
2021/01/31 11:58:39;;;;;;;6.82;2.95;;;;;;;;;;5115528;28;20108;-43
2021/01/31 12:01:04;;;;;;;3.80;1.95;;;;;;;;;;5114765;28;20019;-47
2021/01/31 12:03:29;;;;;;;9.07;2.88;;;;;;;;;;5115094;28;20140;-47
2021/01/31 12:05:55;;;;;;;12.85;2.33;;;;;;;;;;5114398;28;20019;-45
2021/01/31 12:08:20;;;;;;;4.78;2.38;;;;;;;;;;5115319;28;20054;-49
2021/01/31 12:10:45;;;;;;;7.93;2.95;;;;;;;;;;5114573;28;20115;-46
2021/01/31 12:13:10;;;;;;;10.18;3.05;;;;;;;;;;5114773;28;20077;-45
2021/01/31 12:15:36;;;;;;;9.70;2.13;;;;;;;;;;5114472;28;20368;-50
2021/01/31 12:18:01;;;;;;;18.13;3.30;;;;;;;;;;5114693;28;20020;-42
2021/01/31 12:20:27;;;;;;;17.45;4.35;;;;;;;;;;5114131;28;20553;-42
2021/01/31 12:22:52;;;;;;;13.63;2.67;;;;;;;;;;5114516;28;20007;-47
2021/01/31 12:25:18;;;;;;;7.07;2.33;;;;;;;;;;5114014;28;20027;-43
2021/01/31 12:27:47;;;;;;;11.32;3.58;;;;;;;;;;5114211;28;20031;-42
2021/01/31 12:33:15;;;;;;;11.77;3.50;;;;;;;;;;5114836;28;20537;-44
2021/01/31 12:35:40;;;;;;;7.90;2.90;;;;;;;;;;5114368;28;20031;-46
2021/01/31 12:38:06;;;;;;;4.93;2.75;;;;;;;;;;5114436;28;20023;-43
2021/01/31 12:40:32;;;;;;;10.07;3.72;;;;;;;;;;5114028;28;20493;-45
2021/01/31 12:42:57;;;;;;;5.93;2.63;;;;;;;;;;5114346;28;20036;-43
2021/01/31 12:45:23;;;;;;;6.25;1.95;;;;;;;;;;5114159;28;20073;-42
2021/01/31 12:47:48;;;;;;;8.73;2.55;;;;;;;;;;5114007;28;20036;-47
2021/01/31 12:50:15;;;;;;;6.80;2.67;;;;;;;;;;5114158;28;20499;-42
2021/01/31 12:52:40;;;;;;;6.20;1.58;;;;;;;;;;5113720;28;20359;-45
2021/01/31 12:55:06;;;;;;;15.80;2.30;;;;;;;;;;5113392;28;20020;-43
2021/01/31 12:57:31;;;;;;;4.10;2.08;;;;;;;;;;5113533;28;20505;-45
2021/01/31 12:59:57;;;;;;;5.32;2.20;;;;;;;;;;5113642;28;20023;-48
2021/01/31 13:02:23;;;;;;;6.50;1.88;;;;;;;;;;5113707;28;20064;-48
2021/01/31 13:04:48;;;;;;;5.57;1.83;;;;;;;;;;5113681;28;20331;-44
2021/01/31 13:07:13;;;;;;;10.30;1.77;;;;;;;;;;5113768;28;20035;-42
2021/01/31 13:09:39;;;;;;;4.05;2.78;;;;;;;;;;5114220;28;20416;-43
2021/01/31 13:12:04;;;;;;;8.02;1.10;;;;;;;;;;5113394;28;20042;-42
2021/01/31 13:14:29;;;;;;;4.18;2.17;;;;;;;;;;5113135;28;20031;-43
2021/01/31 13:16:55;;;;;;;5.75;1.80;;;;;;;;;;5113356;28;20016;-41
2021/01/31 13:19:20;;;;;;;8.93;2.10;;;;;;;;;;5113279;28;20077;-45
2021/01/31 13:21:45;;;;;;;11.25;3.08;;;;;;;;;;5113117;28;20466;-42
2021/01/31 13:24:11;;;;;;;3.35;1.40;;;;;;;;;;5113205;28;20020;-41
2021/01/31 13:26:36;;;;;;;8.73;1.45;;;;;;;;;;5113489;28;20428;-44
2021/01/31 13:29:02;;;;;;;7.78;1.60;;;;;;;;;;5113636;28;20055;-42
2021/01/31 13:31:28;;;;;;;3.63;2.45;;;;;;;;;;5112922;28;20413;-46
2021/01/31 13:33:54;;;;;;;3.17;0.75;;;;;;;;;;5113365;28;20038;-41
2021/01/31 13:36:19;;;;;;;6.40;3.13;;;;;;;;;;5113489;28;20024;-43
2021/01/31 13:38:47;;;;;;;6.72;1.42;;;;;;;;;;5113695;28;20026;-43
2021/01/31 13:41:13;;;;;;;5.68;2.25;;;;;;;;;;5113232;28;20016;-43
2021/01/31 13:43:38;;;;;;;1.80;1.35;;;;;;;;;;5113842;28;20085;-47
2021/01/31 13:46:03;;;;;;;7.13;2.92;;;;;;;;;;5113194;28;20367;-43
2021/01/31 13:48:28;;;;;;;6.38;2.53;;;;;;;;;;5112891;28;20023;-41
2021/01/31 13:50:54;;;;;;;5.45;1.95;;;;;;;;;;5113527;28;20023;-43
2021/01/31 13:53:19;;;;;;;8.43;2.38;;;;;;;;;;5113350;28;20027;-45
2021/01/31 13:55:44;;;;;;;7.40;2.42;;;;;;;;;;5095162;28;20027;-43
2021/01/31 13:58:12;;;;;;;3.10;1.55;;;;;;;;;;5113982;28;20499;-42
2021/01/31 14:00:37;;;;;;;3.80;2.03;;;;;;;;;;5112866;28;20016;-45
2021/01/31 14:03:03;;;;;;;3.42;1.10;;;;;;;;;;5114542;28;20023;-42
2021/01/31 14:05:28;;;;;;;9.38;2.40;;;;;;;;;;5117118;28;20382;-43
2021/01/31 14:07:54;;;;;;;8.32;2.38;;;;;;;;;;5117230;28;20031;-45
2021/01/31 14:10:20;;;;;;;5.10;2.50;;;;;;;;;;5098897;28;20447;-42
2021/01/31 14:12:46;;;;;;;12.40;4.95;;;;;;;;;;5117076;28;20051;-50
2021/01/31 14:15:11;;;;;;;6.95;3.35;;;;;;;;;;5117138;28;20019;-43
2021/01/31 14:17:40;;;;;;;18.80;2.60;;;;;;;;;;5117306;28;20024;-45
2021/01/31 14:20:06;;;;;;;4.75;2.20;;;;;;;;;;5116493;28;20012;-45
2021/01/31 14:22:32;;;;;;;28.67;13.10;;;;;;;;;;5116955;28;20015;-46
2021/01/31 14:24:57;;;;;;;9.52;5.82;;;;;;;;;;5117445;28;20031;-46
2021/01/31 14:27:22;;;;;;;14.43;4.63;;;;;;;;;;5116557;28;20038;-45
2021/01/31 14:29:47;;;;;;;8.38;6.15;;;;;;;;;;5116712;28;20103;-42
2021/01/31 14:32:13;;;;;;;6.90;3.35;;;;;;;;;;5116582;28;20027;-42
2021/01/31 14:34:38;;;;;;;7.30;4.80;;;;;;;;;;5116745;28;20030;-46
2021/01/31 14:37:04;;;;;;;14.63;5.15;;;;;;;;;;5116282;28;20106;-43
2021/01/31 14:39:29;;;;;;;8.20;4.18;;;;;;;;;;5116367;28;20027;-45
2021/01/31 14:41:54;;;;;;;12.40;4.93;;;;;;;;;;5116393;28;20022;-43
2021/01/31 14:44:20;;;;;;;10.25;4.43;;;;;;;;;;5117291;28;20361;-44
2021/01/31 14:46:46;;;;;;;5.15;2.60;;;;;;;;;;5116077;28;20470;-45
2021/01/31 14:49:11;;;;;;;7.38;3.65;;;;;;;;;;5116037;28;20474;-44
2021/01/31 14:51:36;;;;;;;4.13;2.33;;;;;;;;;;5116188;28;20406;-44
2021/01/31 14:54:02;;;;;;;13.15;3.67;;;;;;;;;;5115967;28;20409;-44
2021/01/31 14:56:27;;;;;;;4.45;2.35;;;;;;;;;;5116271;28;20435;-43
2021/01/31 14:58:52;;;;;;;7.90;2.90;;;;;;;;;;5116062;28;20412;-42
2021/01/31 15:01:18;;;;;;;11.68;3.47;;;;;;;;;;5115571;28;20026;-41
2021/01/31 15:03:43;;;;;;;7.38;3.40;;;;;;;;;;5116432;28;20024;-43
2021/01/31 15:06:08;;;;;;;12.40;4.00;;;;;;;;;;5115939;28;20471;-41
2021/01/31 15:08:34;;;;;;;7.10;2.83;;;;;;;;;;5116378;28;20055;-41
2021/01/31 15:10:59;;;;;;;12.70;6.38;;;;;;;;;;5115521;28;20024;-43
2021/01/31 15:13:24;;;;;;;5.00;2.28;;;;;;;;;;5116114;28;20351;-41